Time;durP1;ratioP1;P1;durP2;ratioP2;P2;SDS_P1;SDS_P2;PMS_P1;PMS_P2;Temp;Humidity;BMP_temperature;BMP_pressure;BME280_temperature;BME280_humidity;BME280_pressure;Samples;Min_cycle;Max_cycle;Signal;HPM_P1;HPM_P2
2022/08/12 00:43:17;;;;;;;11.95;5.20;;;;;;;18.45;49.18;99597.53;5081042;28;20059;-56
2022/08/12 00:48:27;;;;;;;9.13;4.68;;;;;;;18.31;50.60;99598.16;5077859;28;20039;-56
2022/08/12 00:50:53;;;;;;;11.05;5.05;;;;;;;18.46;48.86;99601.84;5076958;28;20020;-56
2022/08/12 00:53:19;;;;;;;8.73;4.90;;;;;;;18.41;50.73;99596.47;5076910;28;20645;-54
2022/08/12 00:55:45;;;;;;;11.10;5.20;;;;;;;18.49;48.75;99602.06;5060583;28;20020;-56
2022/08/12 00:58:12;;;;;;;12.75;5.40;;;;;;;18.42;49.14;99603.50;5076880;28;20029;-56
2022/08/12 01:00:38;;;;;;;23.15;5.78;;;;;;;18.49;49.35;99599.34;5060318;28;20066;-56
2022/08/12 01:03:03;;;;;;;16.00;5.18;;;;;;;18.48;48.97;99591.50;5063909;28;20028;-56
2022/08/12 01:13:46;;;;;;;8.63;4.70;;;;;;;18.41;48.89;99585.59;5081516;28;20486;-56
2022/08/12 01:16:12;;;;;;;10.90;5.00;;;;;;;18.26;50.74;99598.22;5077589;28;20071;-57
2022/08/12 01:18:38;;;;;;;15.23;4.95;;;;;;;18.24;49.48;99594.16;5076425;28;20028;-56
2022/08/12 01:21:23;;;;;;;11.73;5.07;;;;;;;18.19;50.02;99592.28;5078121;28;20162;-56
2022/08/12 01:24:21;;;;;;;12.90;5.28;;;;;;;18.21;50.77;99584.69;5078067;28;20028;-56
2022/08/12 01:26:46;;;;;;;9.32;5.07;;;;;;;18.08;50.43;99588.06;5072031;28;20039;-57
2022/08/12 01:29:13;;;;;;;10.93;5.40;;;;;;;18.03;50.21;99593.53;5083137;28;20032;-57
2022/08/12 01:31:38;;;;;;;10.27;5.13;;;;;;;17.86;51.45;99593.91;5079139;28;20090;-57
2022/08/12 01:34:06;;;;;;;7.57;5.00;;;;;;;17.81;51.45;99593.94;5076235;28;20028;-57
2022/08/12 01:36:40;;;;;;;9.10;4.80;;;;;;;17.76;51.66;99594.75;5077901;28;20540;-57
2022/08/12 01:39:06;;;;;;;10.23;5.20;;;;;;;17.73;51.25;99587.19;5056596;28;20463;-56
2022/08/12 01:41:33;;;;;;;9.25;4.70;;;;;;;17.46;53.07;99593.84;5074586;28;20027;-56
2022/08/12 01:43:59;;;;;;;8.45;5.13;;;;;;;17.56;52.11;99594.88;5081950;28;20035;-59
2022/08/12 01:46:49;;;;;;;9.77;4.82;;;;;;;17.58;53.76;99598.94;5074278;28;20028;-56
2022/08/12 01:49:17;;;;;;;10.35;4.80;;;;;;;17.43;52.62;99599.81;5074299;28;20161;-57
2022/08/12 01:51:45;;;;;;;7.22;4.88;;;;;;;17.44;53.09;99597.91;5074423;28;20474;-58
2022/08/12 01:54:17;;;;;;;12.27;4.70;;;;;;;17.78;51.04;99592.56;5074746;28;20031;-60
2022/08/12 01:57:02;;;;;;;8.85;4.72;;;;;;;17.61;51.53;99600.25;5040286;28;20474;-57
2022/08/12 01:59:58;;;;;;;8.75;5.00;;;;;;;17.54;52.22;99591.63;5073250;28;20059;-58
2022/08/12 02:02:39;;;;;;;7.30;4.75;;;;;;;17.33;53.40;99597.16;5074391;28;20583;-58
2022/08/12 02:11:40;;;;;;;12.10;5.05;;;;;;;17.48;52.43;99592.75;5073336;28;20071;-58
2022/08/12 02:14:43;;;;;;;8.88;4.97;;;;;;;17.46;53.63;99607.38;5079169;28;20024;-58
2022/08/12 02:17:37;;;;;;;7.63;5.57;;;;;;;17.33;53.54;99608.00;5074152;28;20033;-58
2022/08/12 02:20:04;;;;;;;13.02;5.22;;;;;;;17.58;51.78;99612.47;5073727;28;20408;-59
2022/08/12 02:22:47;;;;;;;7.85;4.65;;;;;;;17.53;52.88;99611.69;5073917;28;20029;-56
2022/08/12 02:25:14;;;;;;;10.15;5.05;;;;;;;17.41;52.87;99610.13;5074023;28;20037;-58
2022/08/12 02:27:44;;;;;;;8.73;5.15;;;;;;;17.33;52.61;99604.47;5073533;28;20497;-56
2022/08/12 02:30:12;;;;;;;9.25;4.90;;;;;;;17.28;52.89;99599.09;5073877;28;20036;-57
2022/08/12 02:32:41;;;;;;;12.93;5.03;;;;;;;17.21;52.80;99607.50;5087315;28;20056;-57
2022/08/12 02:35:10;;;;;;;9.68;4.63;;;;;;;17.16;53.90;99608.31;5062589;28;20082;-58
2022/08/12 02:37:38;;;;;;;9.23;5.05;;;;;;;16.97;54.77;99608.13;5072442;28;20103;-56
2022/08/12 02:40:04;;;;;;;8.32;4.60;;;;;;;16.94;54.55;99605.16;5078055;28;20482;-58
2022/08/12 02:42:31;;;;;;;15.30;5.00;;;;;;;16.94;53.80;99610.56;5063921;28;20110;-56
2022/08/12 02:44:56;;;;;;;9.80;4.88;;;;;;;17.04;54.04;99610.53;5055544;28;20025;-58
2022/08/12 02:47:22;;;;;;;11.27;5.13;;;;;;;16.68;54.31;99604.38;5072155;28;20370;-58
2022/08/12 02:49:51;;;;;;;14.13;4.95;;;;;;;16.59;54.49;99604.09;5077990;28;20493;-58
2022/08/12 02:52:18;;;;;;;14.07;4.72;;;;;;;16.67;54.59;99610.84;5073117;28;20538;-56
2022/08/12 02:54:43;;;;;;;12.20;4.88;;;;;;;16.74;54.62;99605.97;5073128;28;20029;-56
2022/08/12 02:57:11;;;;;;;10.65;4.90;;;;;;;16.85;54.45;99601.38;5055400;28;20490;-56
2022/08/12 02:59:37;;;;;;;11.20;4.65;;;;;;;16.94;53.87;99595.13;5073126;28;20028;-59
2022/08/12 03:02:03;;;;;;;16.05;5.07;;;;;;;17.10;53.17;99595.06;5071991;28;20474;-56
2022/08/12 03:04:40;;;;;;;9.25;4.70;;;;;;;17.12;53.26;99601.03;5072352;28;20044;-56
2022/08/12 03:07:21;;;;;;;10.98;4.90;;;;;;;17.03;53.46;99590.78;5076803;28;20042;-56
2022/08/12 03:09:52;;;;;;;9.40;5.65;;;;;;;17.24;53.14;99590.69;5078586;28;20039;-56
2022/08/12 03:12:17;;;;;;;10.70;4.78;;;;;;;17.08;54.20;99589.94;5071663;28;20028;-56
2022/08/12 03:14:43;;;;;;;11.20;4.70;;;;;;;16.80;55.16;99589.50;5072841;28;20028;-56
2022/08/12 03:17:11;;;;;;;8.60;5.05;;;;;;;16.33;57.72;99589.81;5071766;28;20031;-56
2022/08/12 03:19:37;;;;;;;9.43;4.95;;;;;;;15.97;58.54;99592.47;5072321;28;20025;-56
2022/08/12 03:22:11;;;;;;;9.40;5.20;;;;;;;16.12;57.66;99586.28;5072628;28;20028;-56
2022/08/12 03:24:37;;;;;;;12.30;5.22;;;;;;;16.29;57.46;99583.31;5071415;28;20035;-57
2022/08/12 03:27:04;;;;;;;11.55;5.00;;;;;;;16.53;56.90;99591.69;5072505;28;20033;-57
2022/08/12 03:29:29;;;;;;;14.43;5.30;;;;;;;16.41;56.59;99591.97;5078331;28;20111;-56
2022/08/12 03:31:58;;;;;;;12.77;4.80;;;;;;;16.39;57.59;99596.81;5063290;28;20074;-56
2022/08/12 03:34:28;;;;;;;9.40;4.95;;;;;;;16.25;56.68;99601.16;5071936;28;20086;-57
2022/08/12 03:36:54;;;;;;;8.73;4.53;;;;;;;16.20;57.80;99604.69;5055255;28;20028;-57
2022/08/12 03:39:29;;;;;;;10.20;4.63;;;;;;;16.32;57.25;99599.78;5038611;28;20093;-56
2022/08/12 03:42:00;;;;;;;13.32;5.20;;;;;;;16.32;57.29;99605.19;5071040;28;20471;-56
2022/08/12 04:01:11;;;;;;;10.43;5.00;;;;;;;15.71;58.58;99611.38;5056500;28;20089;-58
2022/08/12 04:03:52;;;;;;;13.07;4.93;;;;;;;15.96;58.53;99609.78;5071493;28;20024;-57
2022/08/12 04:06:20;;;;;;;10.15;5.18;;;;;;;16.09;57.67;99608.44;5070969;28;20036;-57
2022/08/12 04:08:49;;;;;;;11.90;4.65;;;;;;;16.28;56.86;99614.16;5079487;28;20024;-57
2022/08/12 04:14:07;;;;;;;7.85;4.85;;;;;;;16.27;56.67;99612.50;5077276;28;20733;-57
2022/08/12 04:16:32;;;;;;;9.77;4.82;;;;;;;16.27;56.54;99618.72;5071968;28;20048;-58
2022/08/12 04:18:58;;;;;;;13.38;4.75;;;;;;;16.38;56.56;99620.38;5053395;28;20021;-57
2022/08/12 04:21:23;;;;;;;15.65;5.72;;;;;;;16.28;56.54;99619.56;5071010;28;20561;-58
2022/08/12 04:23:48;;;;;;;14.10;4.85;;;;;;;16.21;58.49;99619.00;5071589;28;20528;-57
2022/08/12 04:26:14;;;;;;;7.00;4.85;;;;;;;16.43;57.33;99624.97;5071325;28;20082;-57
2022/08/12 04:28:40;;;;;;;10.05;4.45;;;;;;;16.60;56.03;99625.50;5071636;28;20035;-57
2022/08/12 04:31:05;;;;;;;6.65;4.40;;;;;;;17.45;54.18;99622.03;5071621;28;20027;-58
2022/08/12 04:33:31;;;;;;;8.38;4.60;;;;;;;18.45;51.59;99621.94;5076492;28;20028;-57
2022/08/12 04:35:56;;;;;;;9.65;4.53;;;;;;;19.42;49.41;99623.66;5070732;28;20032;-58
2022/08/12 04:38:22;;;;;;;8.40;4.68;;;;;;;20.23;46.97;99629.03;5072075;28;20471;-57
2022/08/12 04:40:47;;;;;;;9.23;4.60;;;;;;;20.73;45.85;99628.50;5070443;28;20040;-57
2022/08/12 04:43:13;;;;;;;10.55;4.50;;;;;;;20.90;45.59;99629.53;5071533;28;20024;-58
2022/08/12 04:45:38;;;;;;;14.93;5.10;;;;;;;21.25;45.43;99638.13;5071589;28;20033;-57
2022/08/12 04:48:04;;;;;;;9.27;5.18;;;;;;;21.45;45.16;99633.41;5074746;28;20393;-58
2022/08/12 04:50:31;;;;;;;7.22;4.90;;;;;;;21.63;44.50;99629.75;5070304;28;20044;-58
2022/08/12 04:52:59;;;;;;;8.02;4.82;;;;;;;22.11;43.51;99623.72;5071901;28;20024;-58
2022/08/12 04:55:25;;;;;;;8.52;4.43;;;;;;;22.48;42.57;99627.22;5070294;28;20032;-58
2022/08/12 04:57:50;;;;;;;9.73;4.80;;;;;;;22.88;41.59;99634.69;5071363;28;20059;-58
2022/08/12 05:00:16;;;;;;;13.35;4.93;;;;;;;23.01;41.20;99631.06;5071536;28;20460;-58
2022/08/12 05:02:41;;;;;;;14.38;4.72;;;;;;;23.50;40.24;99639.28;5071940;28;20028;-58
2022/08/12 05:05:07;;;;;;;7.43;4.65;;;;;;;23.61;41.01;99646.03;5071549;28;20043;-57
2022/08/12 05:07:34;;;;;;;7.55;4.40;;;;;;;23.64;40.34;99648.16;5071379;28;20071;-58
2022/08/12 05:09:59;;;;;;;9.05;4.43;;;;;;;24.41;39.27;99641.13;5069961;28;20029;-57
2022/08/12 05:12:25;;;;;;;13.73;5.00;;;;;;;25.18;38.07;99647.53;5072308;28;20394;-56
2022/08/12 05:14:51;;;;;;;11.77;4.97;;;;;;;24.69;37.94;99647.03;5057200;28;20024;-57
2022/08/12 05:17:16;;;;;;;10.13;5.20;;;;;;;25.58;36.93;99647.13;5080560;28;20036;-57
2022/08/12 05:19:41;;;;;;;9.30;4.88;;;;;;;25.21;37.28;99646.09;5074986;28;20425;-58
2022/08/12 05:22:07;;;;;;;10.70;4.65;;;;;;;24.94;38.40;99647.28;5075033;28;20028;-57
2022/08/12 05:24:32;;;;;;;11.93;4.70;;;;;;;25.02;38.45;99643.69;5074930;28;20086;-57
2022/08/12 05:26:59;;;;;;;12.15;5.38;;;;;;;26.19;35.79;99651.44;5075073;28;20029;-58
2022/08/12 05:29:24;;;;;;;12.05;5.18;;;;;;;25.64;37.39;99652.47;5072398;28;20380;-57
2022/08/12 05:31:54;;;;;;;13.95;4.90;;;;;;;26.23;36.36;99657.84;5074704;28;20025;-56
2022/08/12 05:34:20;;;;;;;9.30;4.75;;;;;;;26.40;36.03;99657.69;5073121;28;20090;-57
2022/08/12 05:36:48;;;;;;;12.75;5.22;;;;;;;26.65;35.29;99666.84;5074401;28;20460;-57
2022/08/12 05:39:13;;;;;;;12.85;4.90;;;;;;;26.37;36.16;99660.31;5077098;28;20048;-57
2022/08/12 05:41:39;;;;;;;7.82;5.28;;;;;;;26.96;35.03;99657.28;5074240;28;20086;-57
2022/08/12 05:44:08;;;;;;;10.43;4.97;;;;;;;27.62;34.44;99667.28;5074534;28;20449;-57
2022/08/12 05:46:34;;;;;;;19.48;5.43;;;;;;;27.53;34.38;99669.34;5074570;28;20039;-57
2022/08/12 05:48:59;;;;;;;11.10;5.22;;;;;;;28.03;33.81;99670.09;5073968;28;20033;-57
2022/08/12 05:51:26;;;;;;;26.35;5.47;;;;;;;28.24;32.45;99670.72;5074582;28;20047;-57
2022/08/12 05:53:52;;;;;;;17.40;5.30;;;;;;;27.79;34.17;99676.44;5074313;28;20021;-57
2022/08/12 05:56:22;;;;;;;16.15;5.57;;;;;;;28.48;33.25;99672.63;5074315;28;20033;-58
2022/08/12 05:58:48;;;;;;;11.52;5.15;;;;;;;27.89;34.36;99676.00;5074071;28;20371;-58
2022/08/12 06:01:13;;;;;;;17.20;5.32;;;;;;;28.04;33.76;99667.00;5074596;28;20025;-58
2022/08/12 06:03:41;;;;;;;22.75;5.80;;;;;;;29.61;30.95;99675.88;5072736;28;20040;-57
2022/08/12 06:06:06;;;;;;;21.73;5.38;;;;;;;29.17;31.30;99678.75;5072793;28;20380;-58
2022/08/12 06:08:35;;;;;;;25.83;6.25;;;;;;;29.42;30.62;99679.38;5076621;28;20024;-57
2022/08/12 06:11:04;;;;;;;26.38;5.78;;;;;;;30.46;29.39;99676.13;5076684;28;20093;-57
2022/08/12 06:13:31;;;;;;;31.95;6.25;;;;;;;30.64;28.90;99679.22;5074041;28;20486;-58
2022/08/12 06:15:56;;;;;;;23.70;6.03;;;;;;;30.34;29.29;99675.50;5072792;28;20035;-57
2022/08/12 06:18:22;;;;;;;18.65;5.40;;;;;;;29.78;30.13;99674.72;5073860;28;20029;-57
2022/08/12 06:20:52;;;;;;;20.52;5.80;;;;;;;30.21;30.38;99667.31;5074217;28;20046;-58
2022/08/12 06:23:18;;;;;;;24.27;5.72;;;;;;;30.19;30.03;99675.16;5072737;28;20150;-57
2022/08/12 06:25:45;;;;;;;21.52;5.50;;;;;;;31.08;28.99;99678.88;5073146;28;20108;-57
2022/08/12 06:28:16;;;;;;;21.85;5.65;;;;;;;31.40;28.91;99673.06;5077873;28;20340;-58
2022/08/12 06:30:44;;;;;;;32.33;6.60;;;;;;;31.30;28.23;99668.13;5073791;28;20422;-57
2022/08/12 06:33:09;;;;;;;30.77;6.20;;;;;;;31.89;27.66;99674.16;5076788;28;20077;-57
2022/08/12 06:35:35;;;;;;;34.33;5.93;;;;;;;30.78;28.53;99675.13;5072301;28;20491;-57
2022/08/12 06:38:02;;;;;;;36.85;6.13;;;;;;;31.67;27.13;99670.28;5074096;28;20025;-57
2022/08/12 06:43:14;;;;;;;28.15;5.60;;;;;;;31.73;27.88;99663.28;5074116;28;20111;-58
2022/08/12 06:45:46;;;;;;;35.30;6.35;;;;;;;31.29;28.40;99661.78;5072067;28;20081;-57
2022/08/12 06:48:11;;;;;;;39.63;6.13;;;;;;;31.49;28.27;99664.50;5055797;28;20470;-57
2022/08/12 06:50:37;;;;;;;29.15;5.90;;;;;;;32.00;27.49;99656.53;5075342;28;20040;-57
2022/08/12 06:53:04;;;;;;;30.20;6.05;;;;;;;32.17;26.82;99660.69;5071095;28;20032;-57
2022/08/12 06:55:30;;;;;;;41.05;5.63;;;;;;;31.29;27.92;99661.00;5070613;28;20037;-57
2022/08/12 06:57:59;;;;;;;33.72;6.70;;;;;;;31.92;27.01;99654.78;5071145;28;20059;-57
2022/08/12 07:00:25;;;;;;;46.47;6.85;;;;;;;31.98;26.69;99656.09;5071757;28;20033;-57
2022/08/12 07:02:52;;;;;;;46.47;7.72;;;;;;;32.00;27.31;99651.00;5072368;28;20103;-57
2022/08/12 07:05:26;;;;;;;74.53;9.05;;;;;;;32.15;26.45;99653.91;5072940;28;20048;-58
2022/08/12 07:07:52;;;;;;;81.03;8.93;;;;;;;31.99;26.80;99652.16;5073253;28;20119;-57
2022/08/12 07:10:24;;;;;;;87.25;9.77;;;;;;;32.43;26.56;99653.47;5072993;28;20108;-57
2022/08/12 07:12:53;;;;;;;86.13;9.57;;;;;;;32.58;26.46;99651.66;5072939;28;20032;-57
2022/08/12 07:15:25;;;;;;;65.13;9.13;;;;;;;32.67;26.18;99649.38;5072981;28;20078;-57
2022/08/12 07:17:59;;;;;;;93.53;10.00;;;;;;;32.27;26.71;99661.97;5072502;28;20399;-57
2022/08/12 07:20:28;;;;;;;88.90;9.70;;;;;;;32.57;26.51;99652.84;5078226;28;20039;-57
2022/08/12 07:22:57;;;;;;;71.85;9.43;;;;;;;33.15;25.92;99646.66;5072966;28;20029;-57
2022/08/12 07:25:31;;;;;;;67.43;9.13;;;;;;;31.88;28.08;99653.19;5071068;28;20033;-57
2022/08/12 07:28:00;;;;;;;89.80;9.68;;;;;;;32.64;27.22;99652.91;5071308;28;20024;-57
2022/08/12 07:30:25;;;;;;;;;;;;;;;32.77;26.17;99648.66;5073203;28;20048;-56
2022/08/12 07:32:51;;;;;;;55.20;7.97;;;;;;;32.97;26.48;99659.56;5070686;28;20353;-57
2022/08/12 07:35:19;;;;;;;66.45;8.27;;;;;;;32.80;26.44;99653.47;5054511;28;20021;-57
2022/08/12 07:37:46;;;;;;;60.72;7.35;;;;;;;33.73;25.72;99654.19;5072288;28;20105;-57
2022/08/12 07:40:11;;;;;;;39.72;6.85;;;;;;;32.99;26.96;99643.31;5071057;28;20074;-56
2022/08/12 07:42:42;;;;;;;51.88;7.22;;;;;;;32.98;26.64;99655.63;5072495;28;20025;-57
2022/08/12 07:45:08;;;;;;;42.45;6.55;;;;;;;32.57;27.46;99650.84;5077385;28;20047;-56
2022/08/12 07:47:33;;;;;;;26.95;6.20;;;;;;;33.35;26.72;99654.72;5072065;28;20025;-57
2022/08/12 07:50:00;;;;;;;36.78;5.93;;;;;;;32.29;27.33;99656.06;5072036;28;20032;-57
2022/08/12 07:52:26;;;;;;;17.92;4.35;;;;;;;31.50;27.07;99666.09;5072338;28;20467;-57
2022/08/12 07:54:52;;;;;;;11.77;4.22;;;;;;;31.09;27.72;99657.50;5071921;28;20060;-57
2022/08/12 07:57:18;;;;;;;7.72;3.83;;;;;;;28.47;30.07;99665.47;5072869;28;20116;-56
2022/08/12 07:59:43;;;;;;;12.10;4.80;;;;;;;27.68;31.27;99665.91;5072332;28;20048;-56
2022/08/12 08:02:08;;;;;;;9.25;4.43;;;;;;;27.54;31.33;99657.22;5085804;28;20029;-56
2022/08/12 08:07:19;;;;;;;6.60;3.90;;;;;;;29.34;29.77;99663.78;5076281;28;20489;-56
2022/08/12 08:09:44;;;;;;;10.10;4.45;;;;;;;28.31;30.93;99667.38;5072094;28;20111;-56
2022/08/12 08:14:57;;;;;;;7.18;4.20;;;;;;;27.15;32.14;99664.97;5071933;28;20502;-56
2022/08/12 08:17:23;;;;;;;8.70;4.25;;;;;;;27.71;31.39;99665.22;5071309;28;20478;-56
2022/08/12 08:19:51;;;;;;;11.90;4.40;;;;;;;27.45;31.61;99673.03;5071551;28;20047;-56
2022/08/12 08:22:26;;;;;;;8.65;4.25;;;;;;;27.23;32.43;99666.88;5071764;28;20060;-56
2022/08/12 08:24:55;;;;;;;7.22;4.25;;;;;;;28.24;30.81;99664.41;5070947;28;20024;-57
2022/08/12 08:27:21;;;;;;;9.80;4.20;;;;;;;28.64;30.47;99669.09;5071821;28;20032;-56
2022/08/12 08:29:46;;;;;;;22.98;5.13;;;;;;;28.44;30.61;99666.16;5055152;28;20036;-56
2022/08/12 08:32:12;;;;;;;16.40;4.78;;;;;;;27.80;31.50;99665.06;5070603;28;20024;-57
2022/08/12 08:34:37;;;;;;;12.32;4.50;;;;;;;28.85;30.10;99669.63;5053687;28;20421;-57
2022/08/12 08:37:03;;;;;;;9.93;4.57;;;;;;;28.09;30.87;99671.47;5071635;28;20029;-56
2022/08/12 08:39:30;;;;;;;10.20;4.28;;;;;;;27.30;32.19;99666.28;5072042;28;20063;-58
2022/08/12 08:44:41;;;;;;;8.30;4.20;;;;;;;28.20;30.47;99663.50;5071937;28;20048;-57
2022/08/12 08:47:07;;;;;;;11.32;4.35;;;;;;;28.57;30.32;99662.22;5071166;28;20541;-56
2022/08/12 08:49:34;;;;;;;12.35;4.45;;;;;;;28.06;30.90;99661.16;5075157;28;20032;-56
2022/08/12 08:52:00;;;;;;;11.60;4.25;;;;;;;28.18;30.21;99674.88;5076010;28;20039;-57
2022/08/12 08:54:25;;;;;;;14.50;4.40;;;;;;;27.40;31.09;99665.00;5075828;28;20491;-57
2022/08/12 08:56:51;;;;;;;14.77;4.47;;;;;;;28.02;30.54;99663.78;5076364;28;20025;-57
2022/08/12 08:59:25;;;;;;;14.38;5.25;;;;;;;27.69;30.81;99667.50;5074484;28;20475;-56
2022/08/12 09:01:51;;;;;;;15.27;4.50;;;;;;;27.37;30.99;99655.50;5074074;28;20020;-56
2022/08/12 09:04:19;;;;;;;11.77;3.78;;;;;;;27.84;30.18;99667.97;5074841;28;20403;-57
2022/08/12 09:06:46;;;;;;;10.77;3.67;;;;;;;28.06;30.06;99666.66;5077044;28;20353;-57
2022/08/12 09:09:13;;;;;;;10.93;3.85;;;;;;;27.49;30.32;99652.75;5078971;28;20028;-57
2022/08/12 09:14:22;;;;;;;8.50;3.90;;;;;;;27.23;30.04;99658.59;5075735;28;20056;-57
2022/08/12 09:16:49;;;;;;;11.98;4.25;;;;;;;27.97;30.39;99655.78;5073801;28;20877;-57
2022/08/12 09:19:16;;;;;;;6.38;3.70;;;;;;;28.54;28.80;99662.94;5073788;28;20056;-57
2022/08/12 09:21:42;;;;;;;7.32;3.50;;;;;;;28.26;28.87;99656.63;5075261;28;20062;-57
2022/08/12 09:24:07;;;;;;;7.68;4.00;;;;;;;27.62;29.54;99661.78;5075092;28;20029;-57
2022/08/12 09:26:33;;;;;;;7.03;3.67;;;;;;;27.81;29.31;99652.94;5075010;28;20074;-56
2022/08/12 09:28:59;;;;;;;9.57;3.80;;;;;;;28.68;27.13;99650.66;5081265;28;20024;-57
2022/08/12 09:31:24;;;;;;;7.53;3.65;;;;;;;28.02;28.34;99658.28;5074867;28;20028;-57
2022/08/12 09:33:50;;;;;;;7.40;3.50;;;;;;;27.60;28.85;99644.81;5073048;28;20025;-57
2022/08/12 09:36:21;;;;;;;8.95;3.40;;;;;;;27.63;28.28;99663.41;5057125;28;20086;-57
2022/08/12 09:38:46;;;;;;;9.07;3.47;;;;;;;28.03;27.95;99651.63;5073312;28;20048;-56
2022/08/12 09:41:14;;;;;;;7.35;3.53;;;;;;;28.20;28.58;99642.25;5075043;28;20064;-57
2022/08/12 09:46:28;;;;;;;10.27;3.78;;;;;;;28.33;27.73;99665.06;5074917;28;20031;-57
2022/08/12 09:48:53;;;;;;;4.88;3.10;;;;;;;27.43;27.23;99642.31;5074066;28;20032;-56
2022/08/12 09:51:19;;;;;;;9.77;3.45;;;;;;;27.58;27.89;99629.78;5074982;28;20055;-59
2022/08/12 09:53:50;;;;;;;9.75;3.53;;;;;;;27.65;27.90;99633.56;5073339;28;20035;-57
2022/08/12 09:56:17;;;;;;;10.93;3.50;;;;;;;28.77;27.17;99626.50;5074713;28;20505;-58
2022/08/12 09:58:45;;;;;;;9.63;3.08;;;;;;;28.12;27.51;99627.47;5077054;28;20036;-57
2022/08/12 10:01:11;;;;;;;11.18;3.67;;;;;;;28.82;27.56;99613.22;5073234;28;20036;-56
2022/08/12 10:03:36;;;;;;;6.50;4.13;;;;;;;28.38;28.00;99617.94;5074355;28;20020;-55
2022/08/12 10:06:05;;;;;;;10.45;3.67;;;;;;;28.43;28.09;99614.13;5063649;28;20124;-58
2022/08/12 10:08:32;;;;;;;9.27;3.65;;;;;;;28.74;27.92;99611.44;5079973;28;20509;-57
2022/08/12 10:13:43;;;;;;;11.93;4.18;;;;;;;27.60;29.81;99614.53;5079137;28;20485;-55
2022/08/12 10:16:10;;;;;;;12.48;4.28;;;;;;;27.74;29.84;99606.69;5072731;28;20028;-55
2022/08/12 10:18:36;;;;;;;7.40;4.05;;;;;;;28.31;28.94;99593.75;5073700;28;20031;-55
2022/08/12 10:21:15;;;;;;;9.13;3.70;;;;;;;28.55;28.72;99601.09;5074025;28;20028;-56
2022/08/12 10:23:43;;;;;;;6.82;3.70;;;;;;;28.31;29.17;99604.78;5074761;28;20115;-56
2022/08/12 10:31:37;;;;;;;10.70;4.22;;;;;;;28.92;28.58;99578.00;5073939;28;20039;-55
2022/08/12 10:34:04;;;;;;;7.97;3.95;;;;;;;29.30;28.08;99577.34;5073443;28;20024;-57
2022/08/12 10:36:33;;;;;;;8.27;4.20;;;;;;;28.54;28.77;99577.47;5073117;28;20028;-57
2022/08/12 10:38:58;;;;;;;14.77;4.43;;;;;;;28.73;29.01;99581.47;5070404;28;20413;-58
2022/08/12 10:44:11;;;;;;;10.32;4.13;;;;;;;28.90;28.55;99586.63;5075969;28;20039;-58
2022/08/12 10:46:37;;;;;;;7.30;3.50;;;;;;;28.56;28.65;99575.16;5071302;28;20367;-57
2022/08/12 10:49:02;;;;;;;9.10;3.70;;;;;;;28.59;28.73;99568.91;5070255;28;20029;-57
2022/08/12 10:51:29;;;;;;;7.18;3.78;;;;;;;27.28;29.67;99569.50;5071013;28;20036;-57
2022/08/12 10:53:54;;;;;;;6.82;3.85;;;;;;;28.06;29.86;99554.50;5070642;28;20064;-58
2022/08/12 10:56:21;;;;;;;8.82;3.90;;;;;;;28.69;28.85;99553.00;5069427;28;20075;-61
2022/08/12 10:58:47;;;;;;;11.05;3.80;;;;;;;28.10;28.79;99544.38;5070817;28;20405;-56
2022/08/12 11:01:12;;;;;;;11.52;3.50;;;;;;;28.42;27.32;99560.97;5070377;28;20047;-56
2022/08/12 11:03:40;;;;;;;7.75;2.90;;;;;;;28.95;27.97;99555.19;5070316;28;20471;-56
2022/08/12 11:06:06;;;;;;;6.18;3.35;;;;;;;28.43;28.43;99540.53;5070440;28;20135;-56
2022/08/12 11:08:33;;;;;;;8.02;3.65;;;;;;;29.10;28.09;99550.84;5070498;28;20494;-57
2022/08/12 11:10:58;;;;;;;8.50;3.53;;;;;;;28.57;27.12;99534.59;5070180;28;20098;-56
2022/08/12 11:13:24;;;;;;;9.27;3.78;;;;;;;28.90;27.44;99514.91;5070328;28;20463;-56
2022/08/12 11:15:51;;;;;;;15.00;3.83;;;;;;;28.76;27.95;99531.13;5070463;28;20390;-57
2022/08/12 11:18:17;;;;;;;6.15;3.53;;;;;;;27.86;28.01;99533.50;5069829;28;20083;-56
2022/08/12 11:20:43;;;;;;;10.18;3.40;;;;;;;28.85;27.81;99528.16;5070224;28;20474;-56
2022/08/12 11:23:08;;;;;;;7.22;3.50;;;;;;;28.53;26.92;99517.16;5070654;28;20032;-57
2022/08/12 11:25:34;;;;;;;14.07;3.53;;;;;;;29.27;26.58;99514.56;5069777;28;20036;-56
2022/08/12 11:27:59;;;;;;;5.50;3.33;;;;;;;28.85;27.38;99511.63;5075716;28;20278;-56
2022/08/12 11:30:25;;;;;;;9.57;3.70;;;;;;;28.69;27.00;99517.97;5070101;28;20017;-56
2022/08/12 11:32:50;;;;;;;7.53;3.03;;;;;;;28.95;26.81;99525.66;5069762;28;20412;-57
2022/08/12 11:35:16;;;;;;;8.27;2.95;;;;;;;28.55;26.88;99526.66;5073228;28;20024;-57
2022/08/12 11:37:41;;;;;;;8.48;3.55;;;;;;;28.10;27.36;99521.53;5078463;28;20509;-57
2022/08/12 11:40:07;;;;;;;8.73;3.20;;;;;;;28.50;27.16;99512.34;5068245;28;20490;-56
2022/08/12 11:42:34;;;;;;;8.77;3.30;;;;;;;29.22;26.58;99507.38;5068624;28;20024;-56
2022/08/12 11:45:00;;;;;;;8.95;3.10;;;;;;;29.15;26.14;99525.72;5069742;28;20045;-57
2022/08/12 11:47:25;;;;;;;8.73;3.25;;;;;;;29.33;26.71;99504.88;5069911;28;20036;-56
2022/08/12 11:49:51;;;;;;;5.40;2.90;;;;;;;28.90;26.31;99517.66;5069324;28;20395;-56
2022/08/12 11:52:16;;;;;;;8.30;3.17;;;;;;;28.51;26.38;99498.22;5069620;28;20024;-56
2022/08/12 11:54:42;;;;;;;8.85;3.10;;;;;;;28.58;26.65;99509.44;5069698;28;20036;-58
2022/08/12 11:57:07;;;;;;;7.22;3.20;;;;;;;28.88;26.25;99499.84;5052268;28;20039;-57
2022/08/12 11:59:33;;;;;;;10.38;3.10;;;;;;;29.08;25.72;99503.50;5069971;28;20040;-56
2022/08/12 12:01:59;;;;;;;4.88;3.33;;;;;;;28.61;26.40;99502.41;5069664;28;20028;-56
2022/08/12 12:04:24;;;;;;;6.80;2.90;;;;;;;28.86;26.92;99494.72;5067712;28;20510;-56
2022/08/12 12:06:50;;;;;;;6.85;3.33;;;;;;;28.85;25.62;99497.81;5074920;28;20486;-57
2022/08/12 12:09:16;;;;;;;6.70;2.95;;;;;;;28.55;25.91;99504.59;5069598;28;20078;-56
2022/08/12 12:11:42;;;;;;;6.63;2.90;;;;;;;28.55;26.01;99488.06;5069370;28;20040;-56
2022/08/12 12:14:08;;;;;;;8.60;3.10;;;;;;;28.99;25.70;99493.44;5068962;28;20033;-56
2022/08/12 12:16:34;;;;;;;6.38;3.03;;;;;;;28.93;25.45;99483.84;5075548;28;20031;-56
2022/08/12 12:19:00;;;;;;;6.85;2.90;;;;;;;28.81;25.61;99486.72;5074825;28;20032;-57
2022/08/12 12:21:26;;;;;;;7.53;2.88;;;;;;;29.69;25.08;99480.75;5070924;28;20024;-57
2022/08/12 12:23:52;;;;;;;5.45;2.72;;;;;;;29.31;25.08;99485.09;5069258;28;20032;-56
2022/08/12 12:26:17;;;;;;;5.95;3.15;;;;;;;28.95;24.20;99489.78;5070454;28;20051;-56
2022/08/12 12:28:43;;;;;;;10.23;3.13;;;;;;;28.89;24.99;99493.19;5071897;28;20025;-56
2022/08/12 12:31:08;;;;;;;5.10;2.95;;;;;;;28.51;25.18;99478.94;5072278;28;20455;-55
2022/08/12 12:33:34;;;;;;;7.07;2.88;;;;;;;28.72;24.81;99486.09;5071423;28;20021;-56
2022/08/12 12:36:00;;;;;;;5.30;3.00;;;;;;;28.68;25.46;99474.19;5071720;28;20036;-57
2022/08/12 12:38:26;;;;;;;10.75;2.88;;;;;;;28.58;25.09;99473.59;5061462;28;20029;-56
2022/08/12 12:40:51;;;;;;;11.70;3.08;;;;;;;28.94;25.24;99471.66;5071696;28;20454;-56
2022/08/12 12:43:17;;;;;;;5.40;3.17;;;;;;;28.59;24.95;99458.63;5071901;28;20036;-56
2022/08/12 12:45:43;;;;;;;5.88;3.22;;;;;;;29.41;25.36;99461.66;5071863;28;20417;-56
2022/08/12 12:48:13;;;;;;;6.43;3.40;;;;;;;29.30;25.42;99458.63;5071487;28;20025;-57
2022/08/12 12:50:47;;;;;;;9.13;3.10;;;;;;;29.29;25.06;99440.50;5070523;28;20033;-56
2022/08/12 12:53:17;;;;;;;5.57;3.38;;;;;;;29.30;25.67;99458.63;5071398;28;20104;-56
2022/08/12 12:55:45;;;;;;;13.93;3.55;;;;;;;29.20;26.62;99442.66;5071764;28;20358;-55
2022/08/12 12:58:15;;;;;;;8.38;3.05;;;;;;;29.30;25.90;99450.34;5077017;28;20450;-56
2022/08/12 13:00:43;;;;;;;9.38;3.15;;;;;;;29.71;26.01;99430.69;5070308;28;20036;-56
2022/08/12 13:03:09;;;;;;;9.23;3.20;;;;;;;29.35;26.32;99435.47;5071180;28;20052;-56
2022/08/12 13:05:35;;;;;;;8.65;3.28;;;;;;;29.39;26.50;99433.59;5073489;28;20048;-55
2022/08/12 13:08:02;;;;;;;5.43;3.40;;;;;;;29.46;26.25;99444.78;5072416;28;20115;-56
2022/08/12 13:10:31;;;;;;;6.55;3.65;;;;;;;29.06;26.19;99450.66;5071435;28;20024;-56
2022/08/12 13:12:56;;;;;;;11.33;3.53;;;;;;;28.81;26.30;99434.31;5070409;28;20028;-57
2022/08/12 13:15:22;;;;;;;6.90;3.10;;;;;;;28.99;26.33;99445.75;5071444;28;20428;-56
2022/08/12 13:17:52;;;;;;;12.20;3.15;;;;;;;29.12;25.95;99432.63;5070877;28;20074;-56